Terminal Aerodrome Forecast
Issued by NWS

Home | Current Version | Previous Version | Text Only | Print | Product List | Glossary On
Versions: 1 2 3 4 5 6 7 8 9 10 11 12 13 14 15 16 17 18 19 20 21 22 23 24 25 26
000
FTUS43 KDLH 171720
TAFHYR
TAF
KHYR 171720Z 1718/1818 17006KT 6SM -SN BR OVC006
     FM172100 22004KT P6SM OVC006
     FM180200 22003KT 2SM BR OVC003
     FM181300 20005KT P6SM OVC006
     FM181500 20008KT P6SM BKN015
     FM181700 20009G17KT P6SM BKN045=

USA.gov is the U.S. government's official web portal to all federal, state and local government web resources and services.